Terminal Aerodrome Forecast
Issued by NWS Dodge City, KS

Home | Current Version | Previous Version | Graphics & Text | Print | Product List | Glossary Off
Versions: 1 2 3 4 5 6 7 8 9 10 11 12 13 14 15 16 17 18 19

000
FTUS43 KDDC 260520
TAFDDC
TAF
KDDC 260520Z 2606/2706 09007KT P6SM BKN050
     FM260900 15006KT P6SM OVC050
     FM261200 20008KT P6SM OVC030
     FM261500 17006KT P6SM BKN050
     FM262100 09005KT P6SM VCTS BKN070CB
     FM270300 10007KT P6SM VCTS SCT060CB=

USA.gov is the U.S. government's official web portal to all federal, state and local government web resources and services.